• Join FlightAware (Why Join?)
  • Login
  • US Flag 
05:53PM EDT


 

Airport Tracker/Info


-or-


 

Live Flight TrackerFlight Track Log ✈ EJA755 ✈ 02-Aug-2013 ✈ KCMA - KLGB

Flight Track Log - Related Links

Times and Time Zones

All times are in EDT time to prevent confusion due to time zone crossing. See the EJA755 flight status page for this flight to view local times or setup timezone preferences in your user account.

Time Position Orientation Groundspeed Altitude Reporting Facility
EDT Latitude Longitude Course Direction KTS MPH feet Rate Location/Type
03:56PM 34.2144 -119.1203 289° West 186 214 1,200  Level Los Angeles Center
03:56PM 34.2250 -119.1583 289° West 194 223 2,900 2,820 Climbing Los Angeles Center
03:57PM 34.1883 -119.2067 227° Southwest 241 277 5,800 1,800 Climbing Los Angeles Center
03:58PM 34.1683 -119.2106 189° South 239 275 5,900 720 Climbing Los Angeles Center
03:59PM 34.0686 -119.2172 183° South 276 318 7,000 480 Climbing Los Angeles Center
04:00PM 34.0069 -119.1714 148° Southeast 264 304 7,000  Level Los Angeles Center
04:01PM 33.9117 -119.1089 151° Southeast 290 334 7,000  Level Los Angeles Center
04:02PM 33.8572 -119.0636 145° Southeast 286 329 7,000  Level Los Angeles Center
04:03PM 33.7894 -119.0114 147° Southeast 289 333 7,000  Level Los Angeles Center
04:04PM 33.7281 -118.9242 130° Southeast 287 330 7,000  Level Los Angeles Center
04:05PM 33.6769 -118.8525 131° Southeast 285 328 7,000  Level Los Angeles Center
04:06PM 33.6267 -118.7797 130° Southeast 284 327 7,000  Level Los Angeles Center
04:07PM 33.5761 -118.7072 130° Southeast 286 329 7,000 -480 Level Los Angeles Center
04:09PM 33.5567 -118.6153 104° East 288 331 6,100 -1,020 Descending Los Angeles Center
04:10PM 33.5369 -118.5064 102° East 284 327 4,900 -1,020 Descending Los Angeles Center
04:11PM 33.5200 -118.4181 103° East 279 321 4,000 -480 Descending Los Angeles Center
04:12PM 33.5064 -118.3294 100° East 276 318 4,000 -60 Level Los Angeles Center
04:13PM 33.5483 -118.2547 56° Northeast 274 315 3,900 -300 Descending Los Angeles Center
04:14PM 33.5911 -118.1925 50° Northeast 259 298 3,500 -840 Descending Los Angeles Center
04:15PM 33.6350 -118.1269 51° Northeast 227 261 2,200 -1,020 Descending Los Angeles Center
04:16PM 33.6667 -118.0833 49° Northeast 208 239 1,600 -360 Descending Southern California TRACON
04:17PM 33.7167 -118.0333 40° Northeast 205 236 1,600  Level Southern California TRACON
04:18PM 33.7500 -118.0667 320° Northwest 190 219 1,600 -360 Level Southern California TRACON
04:19PM 33.7833 -118.1000 320° Northwest 154 177 900 -720 Descending Southern California TRACON
04:20PM 33.8167 -118.1333 320° Northwest 144 166 200 -720 Descending Southern California TRACON
04:22PM 33.8177 -118.1517 191° South  Level Estimated